createdAt,value
2022-10-12T00:03:31.197Z,89.9
2022-10-12T00:09:23.772Z,89.7
2022-10-12T00:15:23.141Z,89.6
2022-10-12T00:21:17.011Z,89.1
2022-10-12T00:27:10.222Z,88.2
2022-10-12T00:33:07.754Z,88.3
2022-10-12T00:39:05.817Z,87.2
2022-10-12T00:45:04.233Z,87.4
2022-10-12T00:50:57.120Z,88.1
2022-10-12T00:56:54.756Z,87.7
2022-10-12T01:02:48.632Z,88.5
2022-10-12T01:15:00.334Z,88.2
2022-10-12T01:20:56.962Z,89.8
2022-10-12T01:26:50.433Z,90.3
2022-10-12T01:33:07.595Z,89
2022-10-12T01:39:02.151Z,89
2022-10-12T01:45:00.098Z,89.4
2022-10-12T01:51:01.038Z,88.7
2022-10-12T01:57:08.230Z,88.7
2022-10-12T02:03:22.894Z,90.1
2022-10-12T02:09:17.664Z,89.9
2022-10-12T02:15:12.483Z,88.9
2022-10-12T02:21:08.629Z,89.3
2022-10-12T02:27:02.267Z,92.1
2022-10-12T02:33:00.593Z,90.8
2022-10-12T02:38:51.399Z,88.9
2022-10-12T02:44:50.630Z,89.8
2022-10-12T02:50:51.132Z,90.1
2022-10-12T02:56:51.616Z,89.3
2022-10-12T03:02:54.067Z,89.1
2022-10-12T03:09:00.529Z,88.2
2022-10-12T03:14:57.519Z,91.5
2022-10-12T03:20:51.141Z,94.2
2022-10-12T03:26:45.222Z,94
2022-10-12T03:32:53.648Z,92
2022-10-12T03:39:09.796Z,91.4
2022-10-12T03:44:59.408Z,90.9
2022-10-12T03:50:48.903Z,91
2022-10-12T03:56:43.172Z,94.2
2022-10-12T04:02:42.596Z,97.9
2022-10-12T04:08:40.289Z,95.2
2022-10-12T04:14:38.282Z,92.6
2022-10-12T04:20:49.403Z,97
2022-10-12T04:26:43.174Z,100
2022-10-12T04:32:43.311Z,94.5
2022-10-12T04:38:35.148Z,98.2
2022-10-12T04:44:33.026Z,100
2022-10-12T04:50:30.115Z,100
2022-10-12T04:56:21.635Z,100
2022-10-12T05:02:13.175Z,98.2
2022-10-12T05:08:05.072Z,95.9
2022-10-12T05:13:56.306Z,96.5
2022-10-12T05:19:48.650Z,97
2022-10-12T05:25:40.733Z,96.9
2022-10-12T05:31:31.290Z,95.6
2022-10-12T05:37:24.203Z,95.1
2022-10-12T05:43:15.381Z,95.8
2022-10-12T05:49:07.494Z,95.8
2022-10-12T05:54:59.049Z,94.9
2022-10-12T06:00:50.136Z,97.3
2022-10-12T06:06:41.485Z,96.3
2022-10-12T06:12:36.345Z,95.6
2022-10-12T06:18:29.013Z,97.8
2022-10-12T06:24:20.595Z,97.2
2022-10-12T06:30:12.296Z,98.8
2022-10-12T06:36:03.843Z,100
2022-10-12T06:41:54.123Z,98.6
2022-10-12T06:47:46.686Z,96.8
2022-10-12T06:53:39.110Z,97.7
2022-10-12T06:59:29.999Z,98.5
2022-10-12T07:05:20.614Z,98.5
2022-10-12T07:11:11.922Z,98.7
2022-10-12T07:17:03.266Z,100
2022-10-12T07:22:55.096Z,100
2022-10-12T07:28:45.754Z,100
2022-10-12T07:34:36.507Z,100
2022-10-12T07:40:27.724Z,100
2022-10-12T07:46:18.306Z,100
2022-10-12T07:52:08.659Z,100
2022-10-12T07:57:59.665Z,100
2022-10-12T08:03:50.239Z,100
2022-10-12T08:09:48.389Z,100
2022-10-12T08:15:38.897Z,100
2022-10-12T08:21:30.822Z,100
2022-10-12T08:27:23.127Z,100
2022-10-12T08:33:13.656Z,100
2022-10-12T08:39:02.324Z,99.5
2022-10-12T08:44:54.337Z,99.3
2022-10-12T08:50:45.332Z,97.9
2022-10-12T08:56:37.830Z,97.6
2022-10-12T09:02:29.005Z,95.2
2022-10-12T09:08:22.443Z,93
2022-10-12T09:14:13.442Z,92
2022-10-12T09:20:04.827Z,89.9
2022-10-12T09:25:57.617Z,89.8
2022-10-12T09:31:49.356Z,88.6
2022-10-12T09:37:40.531Z,87
2022-10-12T09:43:32.195Z,86.8
2022-10-12T09:49:23.189Z,86.2
2022-10-12T09:55:14.452Z,85.2
2022-10-12T10:01:08.484Z,83.9
2022-10-12T10:06:59.983Z,82.2
2022-10-12T10:12:51.881Z,78.7
2022-10-12T10:18:42.750Z,80.6
2022-10-12T10:24:35.160Z,78.7
2022-10-12T10:30:37.943Z,78.9
2022-10-12T10:36:32.003Z,79
2022-10-12T10:42:22.707Z,78
2022-10-12T10:48:19.313Z,78.6
2022-10-12T10:54:12.260Z,78.1
2022-10-12T11:00:39.477Z,75.2
2022-10-12T11:06:33.891Z,73.3
2022-10-12T11:12:34.575Z,75.9
2022-10-12T11:18:28.817Z,75.5
2022-10-12T11:24:20.089Z,73.6
2022-10-12T11:30:11.854Z,74.6
2022-10-12T11:36:03.448Z,74
2022-10-12T11:42:22.785Z,73.3
2022-10-12T11:48:12.831Z,72.5
2022-10-12T11:54:05.403Z,72.5
2022-10-12T11:59:57.713Z,72.8
2022-10-12T12:05:50.263Z,72.6
2022-10-12T12:11:42.997Z,72.4
2022-10-12T12:17:34.520Z,73.2
2022-10-12T12:23:30.576Z,72.1
2022-10-12T12:29:32.492Z,71.8
2022-10-12T12:35:24.056Z,71.3
2022-10-12T12:41:34.933Z,71.4
2022-10-12T12:48:00.140Z,70.7
2022-10-12T12:54:00.676Z,71.3
2022-10-12T13:00:07.317Z,70.8
2022-10-12T13:05:58.998Z,71.4
2022-10-12T13:11:53.815Z,73.1
2022-10-12T13:17:48.020Z,71.7
2022-10-12T13:23:38.142Z,70.4
2022-10-12T13:29:30.438Z,70.2
2022-10-12T13:35:21.106Z,70.4
2022-10-12T13:41:13.093Z,70.3
2022-10-12T13:47:10.309Z,71.1
2022-10-12T13:53:00.628Z,71
2022-10-12T13:58:50.939Z,71.1
2022-10-12T14:04:42.470Z,71.1
2022-10-12T14:10:31.135Z,70.6
2022-10-12T14:16:21.728Z,71.2
2022-10-12T14:22:14.945Z,71.1
2022-10-12T14:28:06.657Z,71.4
2022-10-12T14:33:57.756Z,71.4
2022-10-12T14:39:49.678Z,71.9
2022-10-12T14:45:42.928Z,72.2
2022-10-12T14:51:33.576Z,72.6
2022-10-12T14:57:24.477Z,73.1
2022-10-12T15:03:14.510Z,73.9
2022-10-12T15:09:05.287Z,74.4
2022-10-12T15:15:03.655Z,74.9
2022-10-12T15:21:08.548Z,74.9
2022-10-12T15:26:58.603Z,75
2022-10-12T15:32:49.735Z,74.9
2022-10-12T15:38:40.658Z,75.7
2022-10-12T15:44:30.690Z,76.1
2022-10-12T15:50:21.072Z,76.5
2022-10-12T15:56:13.709Z,77.2
2022-10-12T16:02:04.739Z,78.2
2022-10-12T16:07:55.676Z,79.3
2022-10-12T16:13:56.636Z,80.1
2022-10-12T16:19:51.101Z,80.2
2022-10-12T16:25:43.107Z,81.3
2022-10-12T16:32:00.943Z,80.8
2022-10-12T16:38:04.035Z,82.9
2022-10-12T16:44:13.648Z,84.1
2022-10-12T16:50:16.889Z,85.2
2022-10-12T16:56:07.584Z,85.7
2022-10-12T17:01:59.137Z,85.8
2022-10-12T17:07:49.621Z,86
2022-10-12T17:13:49.244Z,86.4
2022-10-12T17:19:39.582Z,86.6
2022-10-12T17:25:29.582Z,87.3
2022-10-12T17:31:20.407Z,87.8
2022-10-12T17:37:11.048Z,88.1
2022-10-12T17:43:01.727Z,88.5
2022-10-12T17:48:51.838Z,89
2022-10-12T17:54:42.415Z,89.4
2022-10-12T18:00:34.756Z,89.3
2022-10-12T18:06:25.705Z,89.8
2022-10-12T18:12:17.933Z,89.9
2022-10-12T18:18:15.044Z,90.2
2022-10-12T18:24:06.883Z,90.7
2022-10-12T18:30:03.234Z,91.3
2022-10-12T18:35:52.870Z,91.4
2022-10-12T18:41:43.658Z,94.1
2022-10-12T18:47:35.291Z,93.2
2022-10-12T18:53:27.792Z,93
2022-10-12T18:59:19.393Z,93.4
2022-10-12T19:05:08.990Z,93.7
2022-10-12T19:10:59.032Z,94.1
2022-10-12T19:16:49.004Z,95.3
2022-10-12T19:22:39.807Z,96.6
2022-10-12T19:28:31.244Z,97.1
2022-10-12T19:34:23.665Z,97.1
2022-10-12T19:40:13.202Z,96.9
2022-10-12T19:46:03.538Z,97.2
2022-10-12T19:51:54.678Z,97.5
2022-10-12T19:57:44.581Z,96.6
2022-10-12T20:03:35.473Z,95
2022-10-12T20:09:31.140Z,96.8
2022-10-12T20:15:21.915Z,95.1
2022-10-12T20:21:12.900Z,97
2022-10-12T20:27:04.687Z,97.9
2022-10-12T20:32:57.370Z,97.2
2022-10-12T20:38:47.284Z,96.1
2022-10-12T20:44:38.385Z,95.6
2022-10-12T20:50:28.364Z,95.8
2022-10-12T20:56:19.698Z,95.1
2022-10-12T21:02:12.809Z,97.9
2022-10-12T21:08:06.131Z,98.2
2022-10-12T21:13:57.018Z,99
2022-10-12T21:19:47.174Z,99.5
2022-10-12T21:25:37.742Z,100
2022-10-12T21:31:38.599Z,100
2022-10-12T21:37:27.497Z,99.2
2022-10-12T21:43:18.682Z,100
2022-10-12T21:49:07.580Z,100
2022-10-12T21:54:57.667Z,99.3
2022-10-12T22:00:46.790Z,99.7
2022-10-12T22:06:37.059Z,98.8
2022-10-12T22:12:27.814Z,99.5
2022-10-12T22:18:20.320Z,99.5
2022-10-12T22:24:13.509Z,100
2022-10-12T22:30:02.926Z,100
2022-10-12T22:35:54.267Z,100
2022-10-12T22:41:46.497Z,100
2022-10-12T22:47:37.518Z,100
2022-10-12T22:53:29.155Z,100
2022-10-12T22:59:20.551Z,100
2022-10-12T23:05:10.250Z,100
2022-10-12T23:10:59.485Z,100
2022-10-12T23:16:51.179Z,100
2022-10-12T23:22:43.197Z,100
2022-10-12T23:28:34.038Z,100
2022-10-12T23:34:25.427Z,99.9
2022-10-12T23:40:14.473Z,100
2022-10-12T23:46:05.621Z,100
2022-10-12T23:51:56.492Z,100
2022-10-12T23:57:49.519Z,100
